createdAt,value
2022-12-25T00:00:00.251Z,92.8
2022-12-25T00:00:59.235Z,92.8
2022-12-25T00:01:58.941Z,92.7
2022-12-25T00:02:59.453Z,92.5
2022-12-25T00:03:59.860Z,92.2
2022-12-25T00:04:58.979Z,91.9
2022-12-25T00:05:58.991Z,91.7
2022-12-25T00:06:58.988Z,91.5
2022-12-25T00:07:58.996Z,91.3
2022-12-25T00:08:59.062Z,91.2
2022-12-25T00:09:59.030Z,91.2
2022-12-25T00:10:59.023Z,91.1
2022-12-25T00:11:59.064Z,91.2
2022-12-25T00:12:59.091Z,91.3
2022-12-25T00:13:59.091Z,91.3
2022-12-25T00:14:59.075Z,91.4
2022-12-25T00:15:59.415Z,91.5
2022-12-25T00:16:59.137Z,91.5
2022-12-25T00:17:59.130Z,91.4
2022-12-25T00:18:59.274Z,91.3
2022-12-25T00:19:59.161Z,91.3
2022-12-25T00:20:59.205Z,91.5
2022-12-25T00:21:59.183Z,91.5
2022-12-25T00:22:59.189Z,91.3
2022-12-25T00:23:59.216Z,91.4
2022-12-25T00:24:59.263Z,91.3
2022-12-25T00:25:59.251Z,91.3
2022-12-25T00:26:59.253Z,91.1
2022-12-25T00:27:59.265Z,91.1
2022-12-25T00:28:59.305Z,91.1
2022-12-25T00:29:59.281Z,91.1
2022-12-25T00:30:59.525Z,91.2
2022-12-25T00:31:59.608Z,91.2
2022-12-25T00:32:59.329Z,91.3
2022-12-25T00:33:59.357Z,91.2
2022-12-25T00:34:59.353Z,91.5
2022-12-25T00:35:59.394Z,91.4
2022-12-25T00:36:59.374Z,91.3
2022-12-25T00:37:59.404Z,91.3
2022-12-25T00:38:59.410Z,91.3
2022-12-25T00:39:59.425Z,91.4
2022-12-25T00:40:59.458Z,91.5
2022-12-25T00:41:59.470Z,91.5
2022-12-25T00:42:59.501Z,91.4
2022-12-25T00:43:59.508Z,91.6
2022-12-25T00:44:59.524Z,91.5
2022-12-25T00:45:59.859Z,91.5
2022-12-25T00:46:59.806Z,91.4
2022-12-25T00:47:59.580Z,91.4
2022-12-25T00:48:59.574Z,91.6
2022-12-25T00:49:59.584Z,91.6
2022-12-25T00:50:59.587Z,91.6
2022-12-25T00:51:59.582Z,91.5
2022-12-25T00:52:59.607Z,91.5
2022-12-25T00:53:59.651Z,91.5
2022-12-25T00:54:59.630Z,91.6
2022-12-25T00:55:59.695Z,91.5
2022-12-25T00:56:59.675Z,91.5
2022-12-25T00:57:59.658Z,91.4
2022-12-25T00:58:59.685Z,91.7
2022-12-25T00:59:59.683Z,91.7
2022-12-25T01:00:59.884Z,91.6
2022-12-25T01:01:59.983Z,91.6
2022-12-25T01:20:00.268Z,91.6
2022-12-25T01:20:59.884Z,91.6
2022-12-25T01:21:59.918Z,91.5
2022-12-25T01:22:59.895Z,91.6
2022-12-25T01:23:59.915Z,91.5
2022-12-25T01:24:59.912Z,91.8
2022-12-25T01:26:00.254Z,91.6
2022-12-25T01:26:59.927Z,91.6
2022-12-25T01:27:59.932Z,91.6
2022-12-25T01:28:59.941Z,91.5
2022-12-25T01:29:59.951Z,91.6
2022-12-25T01:31:00.582Z,91.7
2022-12-25T01:32:00.223Z,91.7
2022-12-25T01:33:00.020Z,91.6
2022-12-25T01:33:59.966Z,91.8
2022-12-25T01:35:00.017Z,91.6
2022-12-25T01:35:59.993Z,91.6
2022-12-25T01:36:59.972Z,91.7
2022-12-25T01:37:59.999Z,91.7
2022-12-25T01:39:00.005Z,91.7
2022-12-25T01:40:00.034Z,91.8
2022-12-25T01:41:00.047Z,91.7
2022-12-25T01:42:00.048Z,91.6
2022-12-25T01:43:00.010Z,91.8
2022-12-25T01:44:00.042Z,91.6
2022-12-25T01:45:00.042Z,91.7
2022-12-25T01:46:00.497Z,91.7
2022-12-25T01:47:00.037Z,91.7
2022-12-25T01:48:00.055Z,91.7
2022-12-25T01:49:00.148Z,91.7
2022-12-25T01:50:00.183Z,91.7
2022-12-25T01:51:00.094Z,91.8
2022-12-25T01:52:00.106Z,91.8
2022-12-25T01:53:00.097Z,91.9
2022-12-25T01:54:00.193Z,91.9
2022-12-25T01:55:00.178Z,91.9
2022-12-25T01:56:00.146Z,91.9
2022-12-25T01:57:00.156Z,92.0
2022-12-25T01:58:00.128Z,92.0
2022-12-25T01:59:00.157Z,92.1
2022-12-25T02:00:00.228Z,92.2
2022-12-25T02:01:00.410Z,92.5
2022-12-25T02:02:00.885Z,92.6
2022-12-25T02:03:00.445Z,92.7
2022-12-25T02:04:00.466Z,92.7
2022-12-25T02:05:00.228Z,92.8
2022-12-25T02:06:00.189Z,92.8
2022-12-25T02:07:00.206Z,92.8
2022-12-25T02:08:00.259Z,92.8
2022-12-25T02:09:00.221Z,92.9
2022-12-25T02:10:00.235Z,93.2
2022-12-25T02:11:00.242Z,93.3
2022-12-25T02:12:00.722Z,93.4
2022-12-25T02:13:00.245Z,93.4
2022-12-25T02:14:00.239Z,93.4
2022-12-25T02:15:06.787Z,93.4
2022-12-25T02:16:00.276Z,93.4
2022-12-25T02:17:00.489Z,93.4
2022-12-25T02:18:00.283Z,93.4
2022-12-25T02:19:00.252Z,93.3
2022-12-25T02:20:00.340Z,93.3
2022-12-25T02:21:00.269Z,93.3
2022-12-25T02:22:00.257Z,93.2
2022-12-25T02:23:00.276Z,93.2
2022-12-25T02:24:00.273Z,93.3
2022-12-25T02:25:00.320Z,93.2
2022-12-25T02:26:00.316Z,93.2
2022-12-25T02:27:00.358Z,93.3
2022-12-25T02:28:00.306Z,93.2
2022-12-25T02:29:00.311Z,93.3
2022-12-25T02:30:00.320Z,93.2
2022-12-25T02:31:00.341Z,93.2
2022-12-25T02:32:00.811Z,93.0
2022-12-25T02:33:00.462Z,93.0
2022-12-25T02:34:00.498Z,93.0
2022-12-25T02:35:00.454Z,93.0
2022-12-25T02:36:00.368Z,93.0
2022-12-25T02:37:00.346Z,93.0
2022-12-25T02:38:00.371Z,93.0
2022-12-25T02:39:00.385Z,93.0
2022-12-25T02:40:00.683Z,92.9
2022-12-25T02:41:00.367Z,92.9
2022-12-25T02:42:00.405Z,92.9
2022-12-25T02:43:00.415Z,92.9
2022-12-25T02:44:00.472Z,92.9
2022-12-25T02:45:00.434Z,92.8
2022-12-25T02:46:00.631Z,92.9
2022-12-25T02:47:00.440Z,92.9
2022-12-25T02:48:00.429Z,92.9
2022-12-25T02:49:00.432Z,92.9
2022-12-25T02:50:00.448Z,92.8
2022-12-25T02:51:00.454Z,92.7
2022-12-25T02:52:00.494Z,92.8
2022-12-25T02:53:00.469Z,92.7
2022-12-25T02:54:00.472Z,92.7
2022-12-25T02:55:00.511Z,92.6
2022-12-25T02:56:00.547Z,92.6
2022-12-25T02:57:00.493Z,92.5
2022-12-25T02:58:00.497Z,92.5
2022-12-25T02:59:00.553Z,92.5
2022-12-25T03:00:00.496Z,92.4
2022-12-25T03:01:00.853Z,92.4
2022-12-25T03:02:01.058Z,92.2
2022-12-25T03:03:00.694Z,92.2
2022-12-25T03:04:00.587Z,92.2
2022-12-25T03:05:00.541Z,92.1
2022-12-25T03:06:00.597Z,92.2
2022-12-25T03:07:00.563Z,92.2
2022-12-25T03:08:00.570Z,92.2
2022-12-25T03:09:00.574Z,92.3
2022-12-25T03:10:00.590Z,92.3
2022-12-25T03:11:00.579Z,92.3
2022-12-25T03:12:00.614Z,92.3
2022-12-25T03:13:00.597Z,92.4
2022-12-25T03:14:00.595Z,92.4
2022-12-25T03:15:00.622Z,92.4
2022-12-25T03:16:00.620Z,92.3
2022-12-25T03:17:00.972Z,92.3
2022-12-25T03:18:00.653Z,92.2
2022-12-25T03:19:00.666Z,92.2
2022-12-25T03:20:00.652Z,92.1
2022-12-25T03:21:00.676Z,92.1
2022-12-25T03:22:00.662Z,92.1
2022-12-25T03:23:00.699Z,92.1
2022-12-25T03:24:00.719Z,92.1
2022-12-25T03:25:00.706Z,92.1
2022-12-25T03:26:00.710Z,92.1
2022-12-25T03:27:00.714Z,92.1
2022-12-25T03:28:00.746Z,92.1
2022-12-25T03:29:00.739Z,92.2
2022-12-25T03:30:00.835Z,92.2
2022-12-25T03:31:01.106Z,92.2
2022-12-25T03:32:00.762Z,92.3
2022-12-25T03:33:43.687Z,92.3
2022-12-25T03:34:00.754Z,92.3
2022-12-25T03:35:00.778Z,92.3
2022-12-25T03:36:00.767Z,92.2
2022-12-25T03:37:00.779Z,92.2
2022-12-25T03:38:00.797Z,92.1
2022-12-25T03:39:00.797Z,92.0
2022-12-25T03:40:00.836Z,92.0
2022-12-25T03:41:00.857Z,91.9
2022-12-25T03:42:00.849Z,91.9
2022-12-25T03:43:00.855Z,91.9
2022-12-25T03:44:00.844Z,92.0
2022-12-25T03:45:00.924Z,92.0
2022-12-25T03:46:00.956Z,92.1
2022-12-25T03:47:00.870Z,92.1
2022-12-25T03:48:00.904Z,92.1
2022-12-25T03:49:00.868Z,92.1
2022-12-25T03:50:00.914Z,92.1
2022-12-25T03:51:00.893Z,92.1
2022-12-25T03:52:00.910Z,92.1
2022-12-25T03:53:00.891Z,92.2
2022-12-25T03:54:00.872Z,92.3
2022-12-25T03:55:00.950Z,92.3
2022-12-25T03:56:00.926Z,92.1
2022-12-25T03:57:00.906Z,92.2
2022-12-25T03:58:00.915Z,92.2
2022-12-25T03:59:00.905Z,92.1
2022-12-25T04:00:00.950Z,92.1
2022-12-25T04:01:01.198Z,92.1
2022-12-25T04:02:01.294Z,92.1
2022-12-25T04:03:01.226Z,92.1
2022-12-25T04:04:00.956Z,92.0
2022-12-25T04:05:00.941Z,92.2
2022-12-25T04:06:00.966Z,92.2
2022-12-25T04:07:00.968Z,92.3
2022-12-25T04:08:00.974Z,92.5
2022-12-25T04:09:01.018Z,92.6
2022-12-25T04:10:01.004Z,92.6
2022-12-25T04:11:00.989Z,92.5
2022-12-25T04:12:03.524Z,92.3
2022-12-25T04:13:01.026Z,92.4
2022-12-25T04:14:01.013Z,91.9
2022-12-25T04:15:01.031Z,92.1
2022-12-25T04:16:01.399Z,92.2
2022-12-25T04:17:01.028Z,92.1
2022-12-25T04:18:01.046Z,91.8
2022-12-25T04:19:01.051Z,92.0
2022-12-25T04:20:01.053Z,92.1
2022-12-25T04:21:01.079Z,92.0
2022-12-25T04:22:01.094Z,91.9
2022-12-25T04:23:01.076Z,91.8
2022-12-25T04:24:01.074Z,91.6
2022-12-25T04:25:01.087Z,91.5
2022-12-25T04:26:01.091Z,91.4
2022-12-25T04:27:01.138Z,91.3
2022-12-25T04:28:01.159Z,91.2
2022-12-25T04:29:01.111Z,91.3
2022-12-25T04:30:01.124Z,91.4
2022-12-25T04:31:01.302Z,91.5
2022-12-25T04:32:01.131Z,91.5
2022-12-25T04:33:01.150Z,91.6
2022-12-25T04:34:01.139Z,91.7
2022-12-25T04:35:01.148Z,91.7
2022-12-25T04:36:01.141Z,91.7
2022-12-25T04:37:01.172Z,91.8
2022-12-25T04:38:01.181Z,91.8
2022-12-25T04:39:01.168Z,91.8
2022-12-25T04:40:01.188Z,91.8
2022-12-25T04:41:01.184Z,91.9
2022-12-25T04:42:01.330Z,91.9
2022-12-25T04:43:01.222Z,92.1
2022-12-25T04:44:01.211Z,92.0
2022-12-25T04:45:01.251Z,92.0
2022-12-25T04:46:01.460Z,92.1
2022-12-25T04:47:11.882Z,92.1
2022-12-25T04:48:01.299Z,91.8
2022-12-25T04:49:01.305Z,91.6
2022-12-25T04:50:01.256Z,91.8
2022-12-25T04:51:01.259Z,91.9
2022-12-25T04:52:01.277Z,91.8
2022-12-25T04:53:01.315Z,91.9
2022-12-25T04:54:01.317Z,91.8
2022-12-25T04:55:01.293Z,91.7
2022-12-25T04:56:01.299Z,91.9
2022-12-25T04:57:01.311Z,91.8
2022-12-25T04:58:01.474Z,91.8
2022-12-25T04:59:01.324Z,91.8
2022-12-25T05:00:01.438Z,91.8
2022-12-25T05:01:01.353Z,91.7
2022-12-25T05:02:01.755Z,91.7
2022-12-25T05:03:01.940Z,91.7
2022-12-25T05:04:01.394Z,91.7
2022-12-25T05:05:01.566Z,91.8
2022-12-25T05:06:01.422Z,91.8
2022-12-25T05:07:01.402Z,91.7
2022-12-25T05:08:01.424Z,91.7
2022-12-25T05:09:01.438Z,91.4
2022-12-25T05:10:01.445Z,91.5
2022-12-25T05:11:01.455Z,91.3
2022-12-25T05:12:01.445Z,91.3
2022-12-25T05:13:01.505Z,91.3
2022-12-25T05:14:01.718Z,91.2
2022-12-25T05:15:01.463Z,91.2
2022-12-25T05:16:01.711Z,91.1
2022-12-25T05:17:01.522Z,91.2
2022-12-25T05:18:01.503Z,91.2
2022-12-25T05:19:01.515Z,90.9
2022-12-25T05:20:01.520Z,91.1
2022-12-25T05:21:01.535Z,90.9
2022-12-25T05:22:01.533Z,91.1
2022-12-25T05:23:01.534Z,90.9
2022-12-25T05:24:01.572Z,91.2
2022-12-25T05:25:01.579Z,91.3
2022-12-25T05:26:01.571Z,91.4
2022-12-25T05:27:01.582Z,91.4
2022-12-25T05:28:01.591Z,91.4
2022-12-25T05:29:01.603Z,91.4
2022-12-25T05:30:01.635Z,91.4
2022-12-25T05:31:01.732Z,91.4
2022-12-25T05:32:01.625Z,91.3
2022-12-25T05:33:01.619Z,91.3
2022-12-25T05:34:01.643Z,91.3
2022-12-25T05:35:01.652Z,91.1
2022-12-25T05:36:01.627Z,91.2
2022-12-25T05:37:01.642Z,91.2
2022-12-25T05:38:01.640Z,91.1
2022-12-25T05:39:01.660Z,91.1
2022-12-25T05:40:01.712Z,91.1
2022-12-25T05:41:01.685Z,91.1
2022-12-25T05:42:01.685Z,91.2
2022-12-25T05:43:01.700Z,91.0
2022-12-25T05:44:01.684Z,91.3
2022-12-25T05:45:01.727Z,91.5
2022-12-25T05:46:01.698Z,91.5
2022-12-25T05:47:02.026Z,91.4
2022-12-25T05:48:01.740Z,91.0
2022-12-25T05:49:01.740Z,91.0
2022-12-25T05:50:01.719Z,91.0
2022-12-25T05:51:01.731Z,91.1
2022-12-25T05:52:01.740Z,91.0
2022-12-25T05:53:09.136Z,90.8
2022-12-25T05:54:01.810Z,90.8
2022-12-25T05:55:01.758Z,90.9
2022-12-25T05:56:01.779Z,90.9
2022-12-25T05:57:01.801Z,91.0
2022-12-25T05:58:01.779Z,91.1
2022-12-25T05:59:01.784Z,90.9
2022-12-25T06:00:01.870Z,91.1
2022-12-25T06:01:01.842Z,91.1
2022-12-25T06:02:02.365Z,91.2
2022-12-25T06:03:02.486Z,90.7
2022-12-25T06:04:13.061Z,91.0
2022-12-25T06:05:01.856Z,90.5
2022-12-25T06:06:01.839Z,90.7
2022-12-25T06:07:01.854Z,90.2
2022-12-25T06:08:01.853Z,90.1
2022-12-25T06:09:01.871Z,90.1
2022-12-25T06:10:01.869Z,89.9
2022-12-25T06:11:01.884Z,90.2
2022-12-25T06:12:01.908Z,89.7
2022-12-25T06:13:01.901Z,90.1
2022-12-25T06:14:02.019Z,90.0
2022-12-25T06:15:01.904Z,89.7
2022-12-25T06:16:02.075Z,89.8
2022-12-25T06:17:02.237Z,89.6
2022-12-25T06:18:01.918Z,89.9
2022-12-25T06:19:01.949Z,90.0
2022-12-25T06:20:01.939Z,89.6
2022-12-25T06:21:01.941Z,89.8
2022-12-25T06:22:02.210Z,89.7
2022-12-25T06:23:01.973Z,89.8
2022-12-25T06:24:02.431Z,89.7
2022-12-25T06:25:01.990Z,89.6
2022-12-25T06:26:01.994Z,89.8
2022-12-25T06:27:01.975Z,90.2
2022-12-25T06:28:01.983Z,90.3
2022-12-25T06:29:01.991Z,90.4
2022-12-25T06:30:02.084Z,90.5
2022-12-25T06:31:01.990Z,90.0
2022-12-25T06:32:02.244Z,90.1
2022-12-25T06:33:02.023Z,90.1
2022-12-25T06:34:02.019Z,90.0
2022-12-25T06:35:02.066Z,89.9
2022-12-25T06:36:02.047Z,90.0
2022-12-25T06:37:02.043Z,90.0
2022-12-25T06:38:02.189Z,90.0
2022-12-25T06:39:02.093Z,90.2
2022-12-25T06:40:02.084Z,90.2
2022-12-25T06:41:02.070Z,90.2
2022-12-25T06:42:02.111Z,90.2
2022-12-25T06:43:02.101Z,90.2
2022-12-25T06:44:02.174Z,90.1
2022-12-25T06:45:02.143Z,90.2
2022-12-25T06:46:02.338Z,90.3
2022-12-25T06:47:02.132Z,90.5
2022-12-25T06:48:02.135Z,90.7
2022-12-25T06:49:02.138Z,90.9
2022-12-25T06:50:02.169Z,91.0
2022-12-25T06:51:02.145Z,91.0
2022-12-25T06:52:02.158Z,91.0
2022-12-25T06:53:02.164Z,91.0
2022-12-25T06:54:02.168Z,91.0
2022-12-25T06:55:02.369Z,91.1
2022-12-25T06:56:02.201Z,91.3
2022-12-25T06:57:02.202Z,91.4
2022-12-25T06:58:02.196Z,91.5
2022-12-25T06:59:02.219Z,91.6
2022-12-25T07:00:02.339Z,91.7
2022-12-25T07:01:02.383Z,91.7
2022-12-25T07:02:02.718Z,91.7
2022-12-25T07:03:02.838Z,91.5
2022-12-25T07:04:02.275Z,91.6
2022-12-25T07:05:02.321Z,91.5
2022-12-25T07:06:02.253Z,91.4
2022-12-25T07:07:09.902Z,91.5
2022-12-25T07:08:02.284Z,91.3
2022-12-25T07:09:02.265Z,91.4
2022-12-25T07:10:02.278Z,91.3
2022-12-25T07:11:02.279Z,91.3
2022-12-25T07:12:02.273Z,91.2
2022-12-25T07:13:02.310Z,91.2
2022-12-25T07:14:02.301Z,91.1
2022-12-25T07:15:02.310Z,90.7
2022-12-25T07:16:02.490Z,90.9
2022-12-25T07:17:02.481Z,90.7
2022-12-25T07:18:02.321Z,90.5
2022-12-25T07:19:02.324Z,90.1
2022-12-25T07:20:02.346Z,90.1
2022-12-25T07:21:02.343Z,90.3
2022-12-25T07:22:02.354Z,90.3
2022-12-25T07:23:02.352Z,90.3
2022-12-25T07:24:02.375Z,90.4
2022-12-25T07:25:02.390Z,90.4
2022-12-25T07:26:02.381Z,90.2
2022-12-25T07:27:02.375Z,90.2
2022-12-25T07:28:02.386Z,90.3
2022-12-25T07:29:02.396Z,90.3
2022-12-25T07:30:02.432Z,90.4
2022-12-25T07:31:02.415Z,90.3
2022-12-25T07:32:02.763Z,90.5
2022-12-25T07:33:02.435Z,90.4
2022-12-25T07:34:02.435Z,90.5
2022-12-25T07:35:02.488Z,90.7
2022-12-25T07:36:02.456Z,90.6
2022-12-25T07:37:02.485Z,90.6
2022-12-25T07:38:02.473Z,90.4
2022-12-25T07:39:02.485Z,90.6
2022-12-25T07:40:02.484Z,90.5
2022-12-25T07:41:02.480Z,90.2
2022-12-25T07:42:02.516Z,90.4
2022-12-25T07:43:02.511Z,90.1
2022-12-25T07:44:02.502Z,90.1
2022-12-25T07:45:02.518Z,90.1
2022-12-25T07:46:02.837Z,90.1
2022-12-25T07:47:02.531Z,90.2
2022-12-25T07:48:15.401Z,90.3
2022-12-25T07:49:02.542Z,90.5
2022-12-25T07:50:02.553Z,90.6
2022-12-25T07:51:02.552Z,90.6
2022-12-25T07:52:02.567Z,90.6
2022-12-25T07:53:02.577Z,90.7
2022-12-25T07:54:02.610Z,90.7
2022-12-25T07:55:02.600Z,90.7
2022-12-25T07:56:02.607Z,90.5
2022-12-25T07:57:02.606Z,90.4
2022-12-25T07:58:02.616Z,90.4
2022-12-25T07:59:02.682Z,90.4
2022-12-25T08:00:02.629Z,90.4
2022-12-25T08:01:03.018Z,90.2
2022-12-25T08:02:03.605Z,90.3
2022-12-25T08:03:03.449Z,90.3
2022-12-25T08:04:02.871Z,90.1
2022-12-25T08:05:02.656Z,90.1
2022-12-25T08:06:02.655Z,90.2
2022-12-25T08:07:02.684Z,90.1
2022-12-25T08:08:02.672Z,90.0
2022-12-25T08:09:02.706Z,90.1
2022-12-25T08:10:02.702Z,90.0
2022-12-25T08:11:02.703Z,90.1
2022-12-25T08:12:02.714Z,90.0
2022-12-25T08:13:04.735Z,90.1
2022-12-25T08:14:02.743Z,89.8
2022-12-25T08:15:02.760Z,90.0
2022-12-25T08:16:02.800Z,90.0
2022-12-25T08:17:03.031Z,90.1
2022-12-25T08:18:02.776Z,89.7
2022-12-25T08:19:02.795Z,89.6
2022-12-25T08:20:02.802Z,89.3
2022-12-25T08:21:02.819Z,89.3
2022-12-25T08:22:02.807Z,89.5
2022-12-25T08:23:02.789Z,89.5
2022-12-25T08:24:02.841Z,89.5
2022-12-25T08:25:02.835Z,89.6
2022-12-25T08:26:06.102Z,89.7
2022-12-25T08:27:02.833Z,89.7
2022-12-25T08:28:02.868Z,89.8
2022-12-25T08:29:02.885Z,89.7
2022-12-25T08:30:02.893Z,89.7
2022-12-25T08:31:03.021Z,89.6
2022-12-25T08:32:02.876Z,89.4
2022-12-25T08:33:02.877Z,89.3
2022-12-25T08:34:02.931Z,89.1
2022-12-25T08:35:02.897Z,88.9
2022-12-25T08:36:02.905Z,89.0
2022-12-25T08:37:02.911Z,89.0
2022-12-25T08:38:02.943Z,88.9
2022-12-25T08:39:03.785Z,88.9
2022-12-25T08:40:02.919Z,88.7
2022-12-25T08:41:03.004Z,88.4
2022-12-25T08:42:02.938Z,88.5
2022-12-25T08:43:02.955Z,88.5
2022-12-25T08:44:02.935Z,88.4
2022-12-25T08:45:02.972Z,88.2
2022-12-25T08:46:03.182Z,88.2
2022-12-25T08:47:02.960Z,88.3
2022-12-25T08:48:02.997Z,88.0
2022-12-25T08:49:02.988Z,88.1
2022-12-25T08:50:03.222Z,87.9
2022-12-25T08:51:03.034Z,87.9
2022-12-25T08:52:03.039Z,87.6
2022-12-25T08:53:03.073Z,87.5
2022-12-25T08:54:03.031Z,87.7
2022-12-25T08:55:03.051Z,87.4
2022-12-25T08:56:03.040Z,87.4
2022-12-25T08:57:03.388Z,87.4
2022-12-25T08:58:03.038Z,87.3
2022-12-25T08:59:03.059Z,87.2
2022-12-25T09:00:03.070Z,87.1
2022-12-25T09:01:03.310Z,87.2
2022-12-25T09:02:03.633Z,87.1
2022-12-25T09:03:03.469Z,87.2
2022-12-25T09:04:03.140Z,87.3
2022-12-25T09:05:03.134Z,86.9
2022-12-25T09:06:03.119Z,87.1
2022-12-25T09:07:03.134Z,87.3
2022-12-25T09:08:03.146Z,86.9
2022-12-25T09:09:03.163Z,87.0
2022-12-25T09:10:03.172Z,86.9
2022-12-25T09:11:03.168Z,86.7
2022-12-25T09:12:03.163Z,86.7
2022-12-25T09:13:03.181Z,86.8
2022-12-25T09:14:03.204Z,86.7
2022-12-25T09:15:03.202Z,86.6
2022-12-25T09:16:03.303Z,86.5
2022-12-25T09:17:03.217Z,86.5
2022-12-25T09:18:03.200Z,86.2
2022-12-25T09:19:03.222Z,86.3
2022-12-25T09:20:03.223Z,86.2
2022-12-25T09:21:03.243Z,86.2
2022-12-25T09:22:03.246Z,86.3
2022-12-25T09:23:14.429Z,86.3
2022-12-25T09:24:03.266Z,86.3
2022-12-25T09:25:03.260Z,86.1
2022-12-25T09:26:03.276Z,86.1
2022-12-25T09:27:03.283Z,86.2
2022-12-25T09:28:03.285Z,86.1
2022-12-25T09:29:03.303Z,86.0
2022-12-25T09:30:03.321Z,85.9
2022-12-25T09:31:03.443Z,85.8
2022-12-25T09:32:03.293Z,86.0
2022-12-25T09:33:03.322Z,85.9
2022-12-25T09:34:03.334Z,86.0
2022-12-25T09:35:03.375Z,85.9
2022-12-25T09:36:03.360Z,85.8
2022-12-25T09:37:03.361Z,85.9
2022-12-25T09:38:03.390Z,85.7
2022-12-25T09:39:03.358Z,85.6
2022-12-25T09:40:03.395Z,85.5
2022-12-25T09:41:03.413Z,85.5
2022-12-25T09:42:03.402Z,85.4
2022-12-25T09:43:03.409Z,85.4
2022-12-25T09:44:03.434Z,85.5
2022-12-25T09:45:03.448Z,85.6
2022-12-25T09:46:03.606Z,85.5
2022-12-25T09:47:03.459Z,85.5
2022-12-25T09:48:03.459Z,85.5
2022-12-25T09:49:03.487Z,85.5
2022-12-25T09:50:03.480Z,85.5
2022-12-25T09:51:03.472Z,85.5
2022-12-25T09:52:03.508Z,85.6
2022-12-25T09:53:03.505Z,85.5
2022-12-25T09:54:03.527Z,85.5
2022-12-25T09:55:03.520Z,85.5
2022-12-25T09:56:03.533Z,85.5
2022-12-25T09:57:03.523Z,85.7
2022-12-25T09:58:03.547Z,85.6
2022-12-25T09:59:03.562Z,85.7
2022-12-25T10:00:03.556Z,85.6
2022-12-25T10:01:03.560Z,85.6
2022-12-25T10:02:04.010Z,85.6
2022-12-25T10:03:04.140Z,85.6
2022-12-25T10:04:03.581Z,85.7
2022-12-25T10:05:03.593Z,85.7
2022-12-25T10:06:03.593Z,85.7
2022-12-25T10:07:03.603Z,85.7
2022-12-25T10:08:03.609Z,85.7
2022-12-25T10:09:03.630Z,85.6
2022-12-25T10:10:03.643Z,85.6
2022-12-25T10:11:03.693Z,85.5
2022-12-25T10:12:03.632Z,85.4
2022-12-25T10:13:03.650Z,85.5
2022-12-25T10:14:03.644Z,85.4
2022-12-25T10:15:03.679Z,85.4
2022-12-25T10:16:03.838Z,85.5
2022-12-25T10:17:03.695Z,85.5
2022-12-25T10:18:03.680Z,85.4
2022-12-25T10:19:03.709Z,85.4
2022-12-25T10:20:03.694Z,85.2
2022-12-25T10:21:13.501Z,85.2
2022-12-25T10:22:03.746Z,85.0
2022-12-25T10:23:03.731Z,85.0
2022-12-25T10:24:03.756Z,84.8
2022-12-25T10:25:03.762Z,84.8
2022-12-25T10:26:03.781Z,84.9
2022-12-25T10:27:03.755Z,84.9
2022-12-25T10:28:03.765Z,84.8
2022-12-25T10:29:03.785Z,84.8
2022-12-25T10:30:03.782Z,84.7
2022-12-25T10:31:03.916Z,84.6
2022-12-25T10:32:03.790Z,84.5
2022-12-25T10:33:03.872Z,84.4
2022-12-25T10:34:03.830Z,84.3
2022-12-25T10:35:03.817Z,84.3
2022-12-25T10:36:03.874Z,84.4
2022-12-25T10:37:03.835Z,84.4
2022-12-25T10:38:03.866Z,84.4
2022-12-25T10:39:03.856Z,84.5
2022-12-25T10:40:03.862Z,84.5
2022-12-25T10:41:03.895Z,84.6
2022-12-25T10:42:03.897Z,84.5
2022-12-25T10:43:03.903Z,84.5
2022-12-25T10:44:03.895Z,84.6
2022-12-25T10:45:03.973Z,84.6
2022-12-25T10:46:04.070Z,84.5
2022-12-25T10:47:03.989Z,84.5
2022-12-25T10:48:08.248Z,84.6
2022-12-25T10:49:03.943Z,84.6
2022-12-25T10:50:03.960Z,84.5
2022-12-25T10:51:03.952Z,84.5
2022-12-25T10:52:04.173Z,84.5
2022-12-25T10:53:03.971Z,84.5
2022-12-25T10:54:04.022Z,84.4
2022-12-25T10:55:03.985Z,84.4
2022-12-25T10:56:04.010Z,84.4
2022-12-25T10:57:04.025Z,84.4
2022-12-25T10:58:04.024Z,84.4
2022-12-25T10:59:04.017Z,84.4
2022-12-25T11:00:04.026Z,84.4
2022-12-25T11:01:04.045Z,84.5
2022-12-25T11:02:04.659Z,84.6
2022-12-25T11:03:04.603Z,84.5
2022-12-25T11:04:04.301Z,84.5
2022-12-25T11:05:04.072Z,84.5
2022-12-25T11:06:04.075Z,84.5
2022-12-25T11:07:04.084Z,84.4
2022-12-25T11:08:04.128Z,84.3
2022-12-25T11:09:04.129Z,84.2
2022-12-25T11:10:06.305Z,84.1
2022-12-25T11:11:04.112Z,84.1
2022-12-25T11:12:04.114Z,84.1
2022-12-25T11:13:04.162Z,84.1
2022-12-25T11:14:04.141Z,84.2
2022-12-25T11:15:04.153Z,84.1
2022-12-25T11:16:04.296Z,84.0
2022-12-25T11:17:04.174Z,84.0
2022-12-25T11:18:04.181Z,84.0
2022-12-25T11:19:04.216Z,84.0
2022-12-25T11:20:04.181Z,84.1
2022-12-25T11:21:04.205Z,84.1
2022-12-25T11:22:04.263Z,84.0
2022-12-25T11:23:04.227Z,84.0
2022-12-25T11:24:04.246Z,83.7
2022-12-25T11:25:04.235Z,83.9
2022-12-25T11:26:04.289Z,83.8
2022-12-25T11:27:04.259Z,83.7
2022-12-25T11:28:04.303Z,83.6
2022-12-25T11:29:04.274Z,83.6
2022-12-25T11:30:04.302Z,83.7
2022-12-25T11:31:04.448Z,83.6
2022-12-25T11:32:04.316Z,83.7
2022-12-25T11:33:04.295Z,83.6
2022-12-25T11:34:04.357Z,83.6
2022-12-25T11:35:04.316Z,83.7
2022-12-25T11:36:04.325Z,83.6
2022-12-25T11:37:04.345Z,83.6
2022-12-25T11:38:04.379Z,83.6
2022-12-25T11:39:04.381Z,83.7
2022-12-25T11:40:04.397Z,83.8
2022-12-25T11:41:04.408Z,83.8
2022-12-25T11:42:04.382Z,83.8
2022-12-25T11:43:08.585Z,83.8
2022-12-25T11:44:04.392Z,84.0
2022-12-25T11:45:04.425Z,84.0
2022-12-25T11:46:04.445Z,84.1
2022-12-25T11:47:04.614Z,84.1
2022-12-25T11:48:04.442Z,84.1
2022-12-25T11:49:04.437Z,84.2
2022-12-25T11:50:04.447Z,84.2
2022-12-25T11:51:04.491Z,84.2
2022-12-25T11:52:04.464Z,84.3
2022-12-25T11:53:04.482Z,84.3
2022-12-25T11:54:04.474Z,84.3
2022-12-25T11:55:04.484Z,84.4
2022-12-25T11:56:04.520Z,84.4
2022-12-25T11:57:04.580Z,84.3
2022-12-25T11:58:04.525Z,84.4
2022-12-25T11:59:04.519Z,84.4
2022-12-25T12:00:04.525Z,84.4
2022-12-25T12:01:04.562Z,84.4
2022-12-25T12:02:04.974Z,84.4
2022-12-25T12:03:04.982Z,84.4
2022-12-25T12:04:04.697Z,84.4
2022-12-25T12:05:04.562Z,84.3
2022-12-25T12:06:04.671Z,84.4
2022-12-25T12:07:04.587Z,84.3
2022-12-25T12:08:04.603Z,84.4
2022-12-25T12:09:04.605Z,84.4
2022-12-25T12:10:04.636Z,84.4
2022-12-25T12:11:04.643Z,84.4
2022-12-25T12:12:04.653Z,84.5
2022-12-25T12:13:04.685Z,84.5
2022-12-25T12:14:04.652Z,84.5
2022-12-25T12:15:04.663Z,84.5
2022-12-25T12:16:04.847Z,84.5
2022-12-25T12:17:04.683Z,84.5
2022-12-25T12:18:04.763Z,84.5
2022-12-25T12:19:04.758Z,84.6
2022-12-25T12:20:04.980Z,84.7
2022-12-25T12:21:04.760Z,84.7
2022-12-25T12:22:04.724Z,84.7
2022-12-25T12:23:04.781Z,84.7
2022-12-25T12:24:04.750Z,84.6
2022-12-25T12:25:04.772Z,84.7
2022-12-25T12:26:04.753Z,84.8
2022-12-25T12:27:04.788Z,84.7
2022-12-25T12:28:06.139Z,84.7
2022-12-25T12:29:04.806Z,84.7
2022-12-25T12:30:04.812Z,84.7
2022-12-25T12:31:04.819Z,84.7
2022-12-25T12:32:05.165Z,84.7
2022-12-25T12:33:04.845Z,84.6
2022-12-25T12:34:04.850Z,84.5
2022-12-25T12:35:04.856Z,84.5
2022-12-25T12:36:04.895Z,84.5
2022-12-25T12:37:04.895Z,84.6
2022-12-25T12:38:04.880Z,84.6
2022-12-25T12:39:04.904Z,84.5
2022-12-25T12:40:04.898Z,84.5
2022-12-25T12:41:04.907Z,84.5
2022-12-25T12:42:04.948Z,84.5
2022-12-25T12:43:05.007Z,84.4
2022-12-25T12:44:04.937Z,84.5
2022-12-25T12:45:04.945Z,84.5
2022-12-25T12:46:05.185Z,84.5
2022-12-25T12:47:04.952Z,84.6
2022-12-25T12:48:04.974Z,84.7
2022-12-25T12:49:04.967Z,84.7
2022-12-25T12:50:04.980Z,84.8
2022-12-25T12:51:04.993Z,84.8
2022-12-25T12:52:05.004Z,84.8
2022-12-25T12:53:05.031Z,84.8
2022-12-25T12:54:05.031Z,84.8
2022-12-25T12:55:05.063Z,84.8
2022-12-25T12:56:05.031Z,84.8
2022-12-25T12:57:05.106Z,84.9
2022-12-25T12:58:05.140Z,84.9
2022-12-25T12:59:05.087Z,85.0
2022-12-25T13:00:11.393Z,84.9
2022-12-25T13:01:05.218Z,84.9
2022-12-25T13:02:05.575Z,84.9
2022-12-25T13:03:05.360Z,84.9
2022-12-25T13:04:05.181Z,84.9
2022-12-25T13:05:05.107Z,84.9
2022-12-25T13:06:05.118Z,84.9
2022-12-25T13:07:05.354Z,84.8
2022-12-25T13:08:05.125Z,84.8
2022-12-25T13:09:05.143Z,84.8
2022-12-25T13:10:05.149Z,84.8
2022-12-25T13:11:05.160Z,84.8
2022-12-25T13:12:05.160Z,84.8
2022-12-25T13:13:05.191Z,84.8
2022-12-25T13:14:05.186Z,84.8
2022-12-25T13:15:05.190Z,84.9
2022-12-25T13:16:05.381Z,84.9
2022-12-25T13:17:05.376Z,84.9
2022-12-25T13:18:05.224Z,84.9
2022-12-25T13:19:05.249Z,84.9
2022-12-25T13:20:05.226Z,84.8
2022-12-25T13:21:05.250Z,84.8
2022-12-25T13:22:05.245Z,84.8
2022-12-25T13:23:05.257Z,84.9
2022-12-25T13:24:05.264Z,84.9
2022-12-25T13:25:05.266Z,84.9
2022-12-25T13:26:05.280Z,84.9
2022-12-25T13:27:05.300Z,85.0
2022-12-25T13:28:05.314Z,85.0
2022-12-25T13:29:11.899Z,85.0
2022-12-25T13:30:05.305Z,85.0
2022-12-25T13:31:05.336Z,85.1
2022-12-25T13:32:05.841Z,85.0
2022-12-25T13:33:05.538Z,85.0
2022-12-25T13:34:05.352Z,85.0
2022-12-25T13:35:05.396Z,85.0